ADDS METAR Data INFO
IDs: Format: Raw Decoded Include TAF

Data at: 2252 UTC 22 Jun 2018

KHAE 222235Z AUTO 32008KT 10SM OVC014 20/16 A2977 RMK AO2
KHAE 222215Z AUTO 32006KT 10SM BKN014 OVC021 20/16 A2977 RMK AO2
KHAE 222155Z AUTO 32008KT 10SM SCT012 OVC021 21/16 A2977 RMK AO2
KHAE 222135Z AUTO 32008KT 10SM BKN012 OVC018 20/16 A2978 RMK AO2
KHAE 222115Z AUTO 32007KT 10SM OVC010 20/16 A2978 RMK AO2
KHAE 222055Z AUTO 31008KT 10SM BKN012 BKN019 OVC026 20/16 A2978 RMK AO2
KHAE 222035Z AUTO 30006KT 10SM SCT010 BKN019 OVC026 20/16 A2978 RMK AO2
KHAE 222015Z AUTO 31008KT 10SM OVC014 20/16 A2978 RMK AO2
KHAE 221955Z AUTO 34007KT 10SM OVC012 20/16 A2978 RMK AO2
KHAE 221935Z AUTO 34009KT 10SM SCT014 OVC019 20/16 A2979 RMK AO2 LTG DSNT E
KHAE 221915Z AUTO 34006KT 10SM OVC014 20/16 A2979 RMK AO2
KHAE 221855Z AUTO 31009KT 10SM OVC014 20/16 A2979 RMK AO2
KHAE 221835Z AUTO 31008KT 10SM BKN014 BKN021 OVC029 21/16 A2979 RMK AO2
KHAE 221815Z AUTO 33008KT 10SM SCT012 BKN018 OVC029 20/16 A2978 RMK AO2 LTG DSNT E
KHAE 221755Z AUTO 32007KT 10SM BKN010 OVC016 20/16 A2979 RMK AO2 LTG DSNT E
KHAE 221735Z AUTO 33007KT 10SM OVC010 20/17 A2978 RMK AO2
KHAE 221715Z AUTO 33007KT 10SM OVC010 20/16 A2978 RMK AO2
KHAE 221655Z AUTO 35007KT 7SM BKN006 OVC012 20/17 A2978 RMK AO2
KHAE 221635Z AUTO 35005KT 7SM BKN006 OVC011 19/17 A2979 RMK AO2
KHAE 221615Z AUTO 34009KT 4SM BR OVC004 19/17 A2978 RMK AO2
KHAE 221555Z AUTO 35009KT 4SM BR OVC004 19/17 A2978 RMK AO2
KHAE 221535Z AUTO 34005KT 2 1/2SM BR OVC006 20/17 A2978 RMK AO2
KHAE 221515Z AUTO 32007KT 7SM OVC008 21/17 A2977 RMK AO2
KHAE 221455Z AUTO 32009KT 10SM SCT004 BKN008 OVC027 21/17 A2976 RMK AO2
KHAE 221435Z AUTO 33008KT 4SM BR OVC004 20/18 A2976 RMK AO2
KHAE 221415Z AUTO 33008KT 7SM OVC006 20/18 A2975 RMK AO2
KHAE 221355Z AUTO 34007KT 5SM BR OVC004 19/17 A2975 RMK AO2
KHAE 221335Z AUTO 33007KT 5SM BR BKN004 OVC011 19/18 A2975 RMK AO2
KHAE 221315Z AUTO 35004KT 7SM BKN004 OVC011 20/18 A2975 RMK AO2
KHAE 221255Z AUTO 35005KT 7SM OVC004 20/18 A2975 RMK AO2
KHAE 221235Z AUTO 35005KT 7SM OVC004 20/18 A2975 RMK AO2
KHAE 221215Z AUTO 35005KT 4SM BR OVC004 20/18 A2975 RMK AO2
KHAE 221155Z AUTO 34005KT 5SM -RA OVC004 20/18 A2974 RMK AO2
KHAE 221135Z AUTO 36003KT 7SM OVC006 20/18 A2974 RMK AO2
KHAE 221115Z AUTO 34004KT 3SM -RA BKN004 OVC008 20/18 A2974 RMK AO2
KHAE 221055Z AUTO 35004KT 4SM BR OVC004 20/18 A2974 RMK AO2
KHAE 221035Z AUTO 32004KT 4SM BR BKN004 OVC012 20/18 A2973 RMK AO2
KHAE 221015Z AUTO 32004KT 5SM BR BKN004 BKN010 OVC014 19/18 A2972 RMK AO2
KHAE 220955Z AUTO 33005KT 5SM BR OVC004 19/18 A2972 RMK AO2
KHAE 220935Z AUTO 33004KT 5SM BR OVC004 19/17 A2971 RMK AO2
KHAE 220915Z AUTO 34004KT 7SM OVC004 19/17 A2971 RMK AO2
KHAE 220855Z AUTO 34005KT 7SM OVC004 19/17 A2971 RMK AO2
KHAE 220835Z AUTO 32004KT 10SM OVC004 19/17 A2971 RMK AO2
KHAE 220815Z AUTO 32005KT 10SM BKN006 BKN029 OVC037 19/17 A2971 RMK AO2
KHAE 220755Z AUTO 31004KT 10SM BKN029 BKN036 OVC075 19/17 A2970 RMK AO2
KHAE 220735Z AUTO 31004KT 10SM SCT012 BKN031 OVC075 18/17 A2970 RMK AO2
KHAE 220715Z AUTO 31005KT 10SM SCT012 SCT029 OVC075 18/17 A2970 RMK AO2
KHAE 220655Z AUTO 30004KT 10SM OVC075 18/17 A2970 RMK AO2
KHAE 220635Z AUTO 29003KT 10SM SCT075 BKN120 18/17 A2970 RMK AO2
KHAE 220615Z AUTO 30003KT 10SM BKN120 18/17 A2971 RMK AO2
KHAE 220555Z AUTO 31003KT 10SM OVC120 18/17 A2971 RMK AO2
KHAE 220535Z AUTO 00000KT 10SM BKN120 18/16 A2971 RMK AO2 LTG DSNT NW
KHAE 220515Z AUTO 33003KT 10SM SCT110 18/16 A2972 RMK AO2
KHAE 220455Z AUTO 00000KT 10SM SCT120 19/16 A2972 RMK AO2 LTG DSNT N
KHAE 220435Z AUTO 31003KT 10SM BKN120 19/16 A2972 RMK AO2
KHAE 220415Z AUTO 33003KT 10SM BKN110 19/17 A2973 RMK AO2
KHAE 220355Z AUTO 00000KT 10SM OVC110 19/17 A2974 RMK AO2 LTG DSNT N
KHAE 220335Z AUTO 00000KT 10SM OVC110 19/17 A2974 RMK AO2
KHAE 220315Z AUTO 00000KT 10SM BKN120 18/17 A2974 RMK AO2 LTG DSNT NE
KHAE 220255Z AUTO 00000KT 10SM SCT120 19/16 A2974 RMK AO2
KHAE 220235Z AUTO 00000KT 10SM OVC120 19/16 A2973 RMK AO2
KHAE 220215Z AUTO 00000KT 10SM OVC120 19/16 A2973 RMK AO2
KHAE 220155Z AUTO 00000KT 10SM OVC110 20/16 A2973 RMK AO2
KHAE 220135Z AUTO 00000KT 10SM OVC110 20/15 A2972 RMK AO2
KHAE 220115Z AUTO 00000KT 10SM OVC120 20/16 A2971 RMK AO2
KHAE 220055Z AUTO 00000KT 10SM OVC120 21/15 A2971 RMK AO2
KHAE 220035Z AUTO 00000KT 10SM OVC110 21/15 A2971 RMK AO2
KHAE 220015Z AUTO 00000KT 10SM SCT028 SCT035 OVC110 21/15 A2971 RMK AO2
KHAE 212355Z AUTO 02005KT 10SM BKN028 BKN035 BKN110 22/15 A2971 RMK AO2
KHAE 212335Z AUTO 03004KT 10SM SCT026 BKN120 22/15 A2971 RMK AO2
KHAE 212315Z AUTO 29003KT 10SM SCT120 22/13 A2970 RMK AO2
KHAE 212255Z AUTO 29004KT 10SM SCT120 23/13 A2970 RMK AO2
KHAE 212235Z AUTO 30004KT 10SM CLR 22/14 A2971 RMK AO2
KHAE 212215Z AUTO 28005KT 10SM SCT110 22/14 A2971 RMK AO2
KHAE 212115Z AUTO 28005KT 10SM SCT110 22/14 A2971 RMK AO2
KHAE 212055Z AUTO 28007KT 10SM SCT055 SCT100 23/14 A2972 RMK AO2
KHAE 212035Z AUTO 26008KT 10SM SCT055 BKN070 OVC100 24/15 A2973 RMK AO2
KHAE 212015Z AUTO 26009KT 10SM SCT016 BKN055 OVC070 23/17 A2973 RMK AO2
KHAE 211955Z AUTO 26008KT 3SM DZ SCT016 BKN027 OVC042 21/16 A2974 RMK AO2
KHAE 211935Z AUTO 27015G18KT 10SM BKN027 BKN037 OVC044 22/15 A2974 RMK AO2
KHAE 211915Z AUTO 26009KT 10SM SCT025 BKN044 OVC070 24/15 A2974 RMK AO2
KHAE 211855Z AUTO 29009G14KT 10SM SCT025 BKN070 OVC080 23/15 A2973 RMK AO2
KHAE 211835Z AUTO 28013G16KT 10SM SCT032 BKN046 OVC090 24/14 A2972 RMK AO2 LTG DSNT E
KHAE 211815Z AUTO 27015KT 10SM SCT028 BKN033 OVC048 24/15 A2972 RMK AO2 LTG DSNT NE
KHAE 211755Z AUTO 27012KT 10SM SCT028 BKN037 OVC043 24/15 A2972 RMK AO2
KHAE 211735Z AUTO 24006KT 10SM SCT026 SCT033 OVC041 24/15 A2973 RMK AO2
KHAE 211715Z AUTO 26009KT 10SM SCT026 SCT033 OVC041 23/15 A2974 RMK AO2 LTG DSNT NE
KHAE 211655Z AUTO 24009G14KT 10SM SCT025 SCT032 OVC041 25/15 A2973 RMK AO2
KHAE 211635Z AUTO 24009KT 10SM SCT025 SCT033 OVC041 24/15 A2974 RMK AO2
KHAE 211615Z AUTO 24009G14KT 10SM SCT023 BKN030 BKN044 25/16 A2974 RMK AO2
KHAE 211555Z AUTO 25009KT 10SM SCT021 BKN030 23/16 A2974 RMK AO2 LTG DSNT N
KHAE 211535Z AUTO 25008KT 10SM BKN019 BKN026 24/16 A2974 RMK AO2
KHAE 211515Z AUTO 24008KT 10SM BKN018 24/17 A2974 RMK AO2
KHAE 211455Z AUTO 24007KT 10SM OVC016 23/18 A2975 RMK AO2
KHAE 211435Z AUTO 26010KT 10SM OVC014 23/18 A2975 RMK AO2
KHAE 211355Z AUTO 25006KT 10SM SCT009 BKN016 BKN027 22/20 A2975 RMK AO2 P0002
KHAE 211335Z AUTO 26007KT 5SM -RA BKN009 BKN018 OVC028 23/20 A2975 RMK AO2 P0002
KHAE 211315Z AUTO 25003KT 7SM BKN007 OVC013 22/21 A2975 RMK AO2
KHAE 211255Z AUTO 22003KT 7SM BKN005 OVC010 22/21 A2975 RMK AO2
KHAE 211235Z AUTO 21003KT 5SM BR BKN003 OVC018 22/21 A2975 RMK AO2
KHAE 211215Z AUTO 00000KT 4SM BR OVC003 21/20 A2975 RMK AO2
KHAE 211155Z AUTO 00000KT 2SM BR OVC003 21/20 A2975 RMK AO2
KHAE 211135Z AUTO 00000KT 4SM BR OVC003 21/20 A2975 RMK AO2
KHAE 211115Z AUTO 00000KT 3SM -DZ BKN003 OVC009 21/20 A2975 RMK AO2
KHAE 211055Z AUTO 00000KT 3SM BR BKN003 OVC007 21/20 A2975 RMK AO2